ELY223 LFMN-LLBG
Flight info
| Callsign | ELY223 |
|---|---|
| Flight time | N/A |
| Altitude | 37000 |
| Route | SODRI DCT RAPUR DCT RATAP DCT BTA DCT DOKAR DCT SUNEV DCT NEMIT DCT PODOX DCT ROTIR DCT MEDAL DCT OST DCT LUNAR DCT LATAN DCT TRL/N0453F370 DCT SOTIX DCT VANZA DCT PIKOG DCT KONFO L609 GEFEN Y63 AMMIT J10 TOMAL T99 TALMI DCT GINTU |
| Aircraft | B738/M-SDE2E3FGHIRWXY/LB1 |
Departure
| Time | N/A |
|---|---|
| Airport | Nice-Côte d'Azur Airport (LFMN) |
Arrival
| Time | 2026-05-01 08:25 |
|---|---|
| Airport | Ben Gurion International Airport (LLBG) |
| Time | Latitude | Longitude | Altitude | Speed | Heading |
|---|---|---|---|---|---|
| 2026-05-01 07:23 | 35.11650 | 29.01879 | 36967 ft | 518 kts | 114° |
| 2026-05-01 07:24 | 35.07303 | 29.13923 | 36960 ft | 517 kts | 114° |
| 2026-05-01 07:24 | 35.04396 | 29.21934 | 36960 ft | 517 kts | 114° |
| 2026-05-01 07:25 | 35.01478 | 29.29971 | 36968 ft | 516 kts | 114° |
| 2026-05-01 07:25 | 34.98580 | 29.37926 | 36962 ft | 515 kts | 114° |
| 2026-05-01 07:26 | 34.95694 | 29.45857 | 36959 ft | 514 kts | 113° |
| 2026-05-01 07:26 | 34.92776 | 29.53857 | 36960 ft | 514 kts | 113° |
| 2026-05-01 07:27 | 34.89886 | 29.61727 | 36978 ft | 513 kts | 113° |
| 2026-05-01 07:27 | 34.86969 | 29.69672 | 36968 ft | 511 kts | 114° |
| 2026-05-01 07:28 | 34.84069 | 29.77554 | 36965 ft | 513 kts | 114° |
| 2026-05-01 07:28 | 34.81142 | 29.85449 | 36968 ft | 512 kts | 114° |
| 2026-05-01 07:29 | 34.78211 | 29.93357 | 36969 ft | 510 kts | 114° |
| 2026-05-01 07:29 | 34.75251 | 30.01137 | 36972 ft | 511 kts | 117° |
| 2026-05-01 07:30 | 34.71695 | 30.08601 | 36973 ft | 510 kts | 123° |
| 2026-05-01 07:30 | 34.67910 | 30.15822 | 36974 ft | 508 kts | 123° |
| 2026-05-01 07:31 | 34.64091 | 30.23086 | 36974 ft | 509 kts | 123° |
| 2026-05-01 07:32 | 34.54735 | 30.41239 | 36980 ft | 508 kts | 122° |
| 2026-05-01 07:33 | 34.49142 | 30.52138 | 36973 ft | 509 kts | 122° |
| 2026-05-01 07:33 | 34.43524 | 30.63043 | 36977 ft | 509 kts | 123° |
| 2026-05-01 07:34 | 34.37957 | 30.73830 | 36976 ft | 508 kts | 123° |
| 2026-05-01 07:35 | 34.34207 | 30.81069 | 36980 ft | 508 kts | 123° |
| 2026-05-01 07:35 | 34.30455 | 30.88267 | 36982 ft | 508 kts | 123° |
| 2026-05-01 07:36 | 34.26709 | 30.95473 | 36983 ft | 507 kts | 123° |
| 2026-05-01 07:36 | 34.22946 | 31.02706 | 36978 ft | 507 kts | 123° |
| 2026-05-01 07:37 | 34.17321 | 31.13493 | 36981 ft | 507 kts | 123° |
| 2026-05-01 07:37 | 34.13554 | 31.20690 | 36970 ft | 506 kts | 123° |
| 2026-05-01 07:38 | 34.09789 | 31.27863 | 36977 ft | 507 kts | 123° |
| 2026-05-01 07:39 | 34.04126 | 31.38613 | 36969 ft | 505 kts | 124° |
| 2026-05-01 07:39 | 33.98477 | 31.49326 | 36975 ft | 505 kts | 124° |
| 2026-05-01 07:40 | 33.94720 | 31.56431 | 36978 ft | 505 kts | 124° |
| 2026-05-01 07:40 | 33.90926 | 31.63579 | 36972 ft | 507 kts | 124° |
| 2026-05-01 07:41 | 33.87146 | 31.70688 | 36968 ft | 504 kts | 124° |
| 2026-05-01 07:42 | 33.81494 | 31.81319 | 36970 ft | 505 kts | 124° |
| 2026-05-01 07:42 | 33.77711 | 31.88415 | 36967 ft | 504 kts | 124° |
| 2026-05-01 07:43 | 33.73932 | 31.95482 | 36966 ft | 503 kts | 124° |
| 2026-05-01 07:43 | 33.68269 | 32.06055 | 36967 ft | 501 kts | 125° |
| 2026-05-01 07:44 | 33.60698 | 32.20131 | 36966 ft | 502 kts | 125° |
| 2026-05-01 07:45 | 33.56895 | 32.27179 | 36969 ft | 502 kts | 125° |
| 2026-05-01 07:45 | 33.53112 | 32.34177 | 36973 ft | 502 kts | 125° |
| 2026-05-01 07:46 | 33.49321 | 32.41186 | 36973 ft | 501 kts | 125° |
| 2026-05-01 07:47 | 33.43617 | 32.51700 | 36974 ft | 502 kts | 126° |
| 2026-05-01 07:47 | 33.39825 | 32.58667 | 36978 ft | 501 kts | 126° |
| 2026-05-01 07:48 | 33.34131 | 32.69103 | 36978 ft | 500 kts | 127° |
| 2026-05-01 07:48 | 33.30319 | 32.76077 | 36982 ft | 501 kts | 126° |
| 2026-05-01 07:49 | 33.24626 | 32.86458 | 36983 ft | 499 kts | 126° |
| 2026-05-01 07:50 | 33.20816 | 32.93401 | 36982 ft | 500 kts | 127° |
| 2026-05-01 07:50 | 33.15095 | 33.03807 | 36985 ft | 499 kts | 127° |
| 2026-05-01 07:51 | 33.11264 | 33.10744 | 36988 ft | 500 kts | 127° |
| 2026-05-01 07:52 | 33.05538 | 33.21094 | 36988 ft | 499 kts | 127° |
| 2026-05-01 07:52 | 33.01695 | 33.28027 | 36988 ft | 501 kts | 127° |
| 2026-05-01 07:53 | 32.95950 | 33.38369 | 36993 ft | 499 kts | 127° |
| 2026-05-01 07:53 | 32.92127 | 33.45233 | 36989 ft | 499 kts | 127° |
| 2026-05-01 07:55 | 32.82363 | 33.62317 | 36990 ft | 497 kts | 133° |
| 2026-05-01 07:56 | 32.70785 | 33.77203 | 36988 ft | 492 kts | 140° |
| 2026-05-01 07:57 | 32.63607 | 33.85955 | 36989 ft | 492 kts | 140° |
| 2026-05-01 07:58 | 32.54141 | 33.97597 | 36988 ft | 492 kts | 139° |
| 2026-05-01 07:59 | 32.44581 | 34.09202 | 36985 ft | 489 kts | 142° |
| 2026-05-01 07:59 | 32.39180 | 34.13869 | 36987 ft | 477 kts | 157° |
| 2026-05-01 08:00 | 32.27874 | 34.22102 | 36985 ft | 486 kts | 146° |
| 2026-05-01 08:01 | 32.17788 | 34.32874 | 36981 ft | 488 kts | 143° |
| 2026-05-01 08:02 | 32.10183 | 34.40867 | 36980 ft | 487 kts | 144° |
| 2026-05-01 08:03 | 32.02476 | 34.48745 | 36978 ft | 487 kts | 144° |
| 2026-05-01 08:03 | 31.94737 | 34.56614 | 36971 ft | 487 kts | 144° |
| 2026-05-01 08:04 | 31.84446 | 34.67058 | 36974 ft | 486 kts | 145° |
| 2026-05-01 08:05 | 31.76762 | 34.74838 | 36731 ft | 481 kts | 145° |
| 2026-05-01 08:05 | 31.74245 | 34.77387 | 36248 ft | 476 kts | 146° |
| 2026-05-01 08:06 | 31.69223 | 34.82459 | 35007 ft | 478 kts | 146° |
| 2026-05-01 08:06 | 31.64155 | 34.87593 | 33357 ft | 490 kts | 143° |
| 2026-05-01 08:07 | 31.59445 | 34.93553 | 31472 ft | 506 kts | 133° |
| 2026-05-01 08:07 | 31.55277 | 35.00320 | 29453 ft | 518 kts | 128° |
| 2026-05-01 08:08 | 31.53274 | 35.03838 | 28437 ft | 522 kts | 127° |
| 2026-05-01 08:08 | 31.49353 | 35.10875 | 26951 ft | 515 kts | 126° |
| 2026-05-01 08:09 | 31.45772 | 35.18080 | 25813 ft | 506 kts | 114° |
| 2026-05-01 08:09 | 31.44739 | 35.21936 | 25549 ft | 495 kts | 105° |
| 2026-05-01 08:09 | 31.44153 | 35.25892 | 25252 ft | 485 kts | 97° |
| 2026-05-01 08:10 | 31.44678 | 35.33638 | 23807 ft | 484 kts | 73° |
| 2026-05-01 08:10 | 31.47268 | 35.40867 | 22166 ft | 481 kts | 58° |
| 2026-05-01 08:11 | 31.51539 | 35.46695 | 20574 ft | 471 kts | 35° |
| 2026-05-01 08:11 | 31.57026 | 35.50680 | 18974 ft | 460 kts | 21° |
| 2026-05-01 08:12 | 31.63113 | 35.52501 | 17438 ft | 442 kts | 1° |
| 2026-05-01 08:12 | 31.66104 | 35.52659 | 16713 ft | 423 kts | 358° |
| 2026-05-01 08:12 | 31.71651 | 35.52070 | 15357 ft | 383 kts | 340° |
| 2026-05-01 08:13 | 31.74165 | 35.51124 | 14724 ft | 375 kts | 340° |
| 2026-05-01 08:13 | 31.76717 | 35.50388 | 14015 ft | 378 kts | 347° |
| 2026-05-01 08:13 | 31.81980 | 35.50211 | 12673 ft | 381 kts | 3° |
| 2026-05-01 08:14 | 31.84614 | 35.50578 | 12252 ft | 372 kts | 1° |
| 2026-05-01 08:14 | 31.87153 | 35.50393 | 11838 ft | 358 kts | 342° |
| 2026-05-01 08:14 | 31.89338 | 35.49188 | 11141 ft | 344 kts | 320° |
| 2026-05-01 08:14 | 31.90975 | 35.47253 | 10622 ft | 327 kts | 304° |
| 2026-05-01 08:15 | 31.92123 | 35.45030 | 10313 ft | 305 kts | 294° |
| 2026-05-01 08:15 | 31.93197 | 35.40639 | 10180 ft | 259 kts | 275° |
| 2026-05-01 08:15 | 31.93449 | 35.38509 | 10026 ft | 271 kts | 278° |
| 2026-05-01 08:16 | 31.93945 | 35.36330 | 9658 ft | 277 kts | 289° |
| 2026-05-01 08:16 | 31.94812 | 35.34341 | 9327 ft | 278 kts | 301° |
| 2026-05-01 08:16 | 31.95991 | 35.32513 | 8988 ft | 278 kts | 308° |
| 2026-05-01 08:16 | 31.97280 | 35.30812 | 8639 ft | 277 kts | 310° |
| 2026-05-01 08:17 | 31.98601 | 35.29128 | 8301 ft | 276 kts | 310° |
| 2026-05-01 08:17 | 31.99901 | 35.27451 | 7957 ft | 274 kts | 310° |
| 2026-05-01 08:17 | 32.01181 | 35.25761 | 7631 ft | 272 kts | 308° |
| 2026-05-01 08:17 | 32.02091 | 35.23853 | 7283 ft | 266 kts | 282° |
| 2026-05-01 08:18 | 32.02057 | 35.21707 | 6737 ft | 263 kts | 251° |
| 2026-05-01 08:18 | 31.99999 | 35.18345 | 6105 ft | 244 kts | 221° |
| 2026-05-01 08:19 | 31.97336 | 35.15923 | 5601 ft | 237 kts | 217° |
| 2026-05-01 08:19 | 31.96012 | 35.14769 | 5342 ft | 235 kts | 217° |
| 2026-05-01 08:19 | 31.94708 | 35.13614 | 5071 ft | 233 kts | 218° |
| 2026-05-01 08:19 | 31.93423 | 35.12466 | 4807 ft | 231 kts | 218° |
| 2026-05-01 08:20 | 31.92154 | 35.11324 | 4572 ft | 228 kts | 220° |
| 2026-05-01 08:20 | 31.91039 | 35.09999 | 4330 ft | 224 kts | 239° |
| 2026-05-01 08:20 | 31.90601 | 35.08299 | 4105 ft | 217 kts | 272° |
| 2026-05-01 08:20 | 31.91025 | 35.06611 | 3720 ft | 219 kts | 298° |
| 2026-05-01 08:21 | 31.91797 | 35.05053 | 3377 ft | 220 kts | 300° |
| 2026-05-01 08:21 | 31.92569 | 35.03523 | 3071 ft | 209 kts | 301° |
| 2026-05-01 08:21 | 31.93286 | 35.02135 | 2788 ft | 193 kts | 301° |
| 2026-05-01 08:21 | 31.93973 | 35.00825 | 2562 ft | 172 kts | 301° |
| 2026-05-01 08:22 | 31.94582 | 34.99665 | 2252 ft | 161 kts | 302° |
| 2026-05-01 08:22 | 31.95154 | 34.98576 | 2025 ft | 147 kts | 302° |
| 2026-05-01 08:22 | 31.95688 | 34.97562 | 1834 ft | 144 kts | 302° |
| 2026-05-01 08:22 | 31.96217 | 34.96559 | 1635 ft | 143 kts | 302° |
| 2026-05-01 08:23 | 31.96745 | 34.95557 | 1432 ft | 144 kts | 302° |
| 2026-05-01 08:23 | 31.97276 | 34.94549 | 1221 ft | 144 kts | 302° |
| 2026-05-01 08:23 | 31.97817 | 34.93535 | 999 ft | 144 kts | 302° |
| 2026-05-01 08:23 | 31.98349 | 34.92529 | 794 ft | 143 kts | 302° |
| 2026-05-01 08:24 | 31.98881 | 34.91528 | 611 ft | 144 kts | 302° |
| 2026-05-01 08:24 | 31.99420 | 34.90524 | 396 ft | 146 kts | 302° |
| 2026-05-01 08:24 | 31.99949 | 34.89511 | 191 ft | 145 kts | 301° |
| 2026-05-01 08:24 | 32.00432 | 34.88578 | 137 ft | 111 kts | 298° |
| 2026-05-01 08:25 | 32.00720 | 34.88035 | 131 ft | 47 kts | 301° |
| 2026-05-01 08:25 | 32.00826 | 34.87826 | 127 ft | 25 kts | 301° |
| 2026-05-01 08:25 | 32.00933 | 34.87623 | 127 ft | 29 kts | 301° |
| 2026-05-01 08:25 | 32.01031 | 34.87416 | 125 ft | 28 kts | 293° |
| 2026-05-01 08:26 | 32.01065 | 34.87219 | 123 ft | 17 kts | 274° |
| 2026-05-01 08:26 | 32.01058 | 34.87080 | 122 ft | 16 kts | 239° |
| 2026-05-01 08:26 | 32.00981 | 34.87100 | 123 ft | 11 kts | 137° |
| 2026-05-01 08:26 | 32.00915 | 34.87117 | 123 ft | 8 kts | 165° |
| 2026-05-01 08:27 | 32.00863 | 34.87169 | 123 ft | 13 kts | 124° |
| 2026-05-01 08:27 | 32.00813 | 34.87273 | 126 ft | 10 kts | 129° |
| 2026-05-01 08:27 | 32.00737 | 34.87304 | 126 ft | 13 kts | 187° |
| 2026-05-01 08:27 | 32.00671 | 34.87254 | 127 ft | 9 kts | 224° |
| 2026-05-01 08:28 | 32.00651 | 34.87230 | 127 ft | 3 kts | 225° |
| 2026-05-01 08:28 | 32.00634 | 34.87209 | 127 ft | 1 kts | 228° |